Pagrindinis puslapis
METAR-TAF:

METAR-TAF

Oro uostai :

Tokijas Narita, Japonija

platuma: 35-46N, ilguma: 140-23E, Aukštis: 41 m

Dabartinis oras

Ataskaita buvo paskelbta 16 minutes, ne 03:00 UTC
Vėjas 6 kt iš Vakarų, svyruoja nuo Pietvakarių ir Šiaurės/Šiaurės Vakarų
Temperatūra 12°C
Drėgmė 40%
Slėgis 1011 hPa
Matomumas 10 km arba daugiau
Mažai debesys ne aukštis 3000 ft

METAR: RJAA 200300Z 28006KT 230V340 9999 FEW030 12/M01 Q1011 NOSIG RMK 1CU030 A2987

Laikas: 12:16 (03:16 UTC)

Prognozė

Ataskaita buvo paskelbta 4 valandos ir 10 minutes, ne 23:06 UTC
Prognozė galioja nuo 20 metu 00 UTC su 21 metu 06 UTC
Vėjas 4 kt iš Vakarų
Matomumas 10 km arba daugiau
Mažai debesys ne aukštis 3000 ft
Tapsmas
nuo 21 metu 00 UTC su 21 metu 03 UTC
Vėjas 14 kt iš Šiaurės Vakarų
Laikinai
nuo 21 metu 03 UTC su 21 metu 06 UTC
Vėjas 18 kt iš Šiaurės Vakarų su gūsio iki 28 kt

TAF: RJAA 192306Z 2000/2106 27004KT 9999 FEW030 BECMG 2100/2103 32014KT TEMPO 2103/2106 31018G28KT

Orai ataskaitas ir orų prognozės (METAR, TAF).

turimą stotys yra geltonos ir raudonos taškus žemėlapyje.

Perkelti pele per norėdami pamatyti stoties vardą.

Tada spustelėkite, norėdami matyti oro stebėjimo ir prognozės.

Norėdami pakeisti žemėlapį: spustelėkite ant žalios mygtukų su juodo kryžiaus žemyn,; žalią mygtuką su brūkšneliu, jei norite nutolinti; arba žalių rodyklių gretimoms žemėlapius.


METAR-TAF: